Time;durP1;ratioP1;P1;durP2;ratioP2;P2;SDS_P1;SDS_P2;PMS_P1;PMS_P2;Temp;Humidity;BMP_temperature;BMP_pressure;BME280_temperature;BME280_humidity;BME280_pressure;Samples;Min_cycle;Max_cycle;Signal;HPM_P1;HPM_P2
2022/11/15 00:00:18;;;;;;;28.70;19.63;;;;;;;;;;4925753;29;20314;-81
2022/11/15 00:02:44;;;;;;;28.35;18.40;;;;;;;;;;4933756;29;20040;-81
2022/11/15 00:05:10;;;;;;;31.08;20.92;;;;;;;;;;4931084;28;20028;-81
2022/11/15 00:07:36;;;;;;;29.08;20.35;;;;;;;;;;4939543;29;20035;-82
2022/11/15 00:10:03;;;;;;;25.85;18.98;;;;;;;;;;4930468;29;20079;-82
2022/11/15 00:12:29;;;;;;;28.70;19.23;;;;;;;;;;4933727;29;20054;-82
2022/11/15 00:14:55;;;;;;;29.92;19.55;;;;;;;;;;4926925;29;20031;-83
2022/11/15 00:17:21;;;;;;;28.17;18.70;;;;;;;;;;4925356;29;20020;-80
2022/11/15 00:19:47;;;;;;;30.00;18.88;;;;;;;;;;4929117;29;20028;-82
2022/11/15 00:22:13;;;;;;;25.90;18.90;;;;;;;;;;4932811;29;20206;-81
2022/11/15 00:24:39;;;;;;;30.23;19.42;;;;;;;;;;4921785;29;20058;-81
2022/11/15 00:27:05;;;;;;;31.92;18.40;;;;;;;;;;4931085;29;20043;-82
2022/11/15 00:29:31;;;;;;;26.35;18.20;;;;;;;;;;4929712;29;20024;-79
2022/11/15 00:31:57;;;;;;;23.25;17.27;;;;;;;;;;4910051;29;20039;-81
2022/11/15 00:34:23;;;;;;;25.58;17.38;;;;;;;;;;4931930;29;20039;-81
2022/11/15 00:36:49;;;;;;;26.60;17.40;;;;;;;;;;4927215;29;20031;-79
2022/11/15 00:39:15;;;;;;;27.33;17.98;;;;;;;;;;4938051;29;20365;-79
2022/11/15 00:41:41;;;;;;;25.83;17.98;;;;;;;;;;4926117;29;20389;-80
2022/11/15 00:44:07;;;;;;;26.35;17.58;;;;;;;;;;4931532;29;20119;-82
2022/11/15 00:46:34;;;;;;;28.10;17.73;;;;;;;;;;4920850;29;20090;-81
2022/11/15 00:49:00;;;;;;;23.55;17.25;;;;;;;;;;4934033;29;20060;-81
2022/11/15 00:51:26;;;;;;;25.73;17.90;;;;;;;;;;4910630;29;20042;-81
2022/11/15 00:53:52;;;;;;;28.45;18.55;;;;;;;;;;4937484;29;20523;-83
2022/11/15 00:56:18;;;;;;;25.17;18.55;;;;;;;;;;4940350;29;20503;-83
2022/11/15 00:58:44;;;;;;;29.60;18.70;;;;;;;;;;4940405;29;20054;-83
2022/11/15 01:01:11;;;;;;;25.98;18.75;;;;;;;;;;4931482;29;20054;-81
2022/11/15 01:03:37;;;;;;;29.35;19.38;;;;;;;;;;4933412;29;20503;-82
2022/11/15 01:06:04;;;;;;;27.55;18.60;;;;;;;;;;4939491;28;20051;-83
2022/11/15 01:08:30;;;;;;;30.20;20.00;;;;;;;;;;4956416;29;20579;-82
2022/11/15 01:11:00;;;;;;;29.15;20.17;;;;;;;;;;4934515;29;20095;-82
2022/11/15 01:13:26;;;;;;;25.23;17.92;;;;;;;;;;4955266;29;20034;-81
2022/11/15 01:15:52;;;;;;;28.25;19.83;;;;;;;;;;4944974;28;20038;-83
2022/11/15 01:18:18;;;;;;;29.27;20.52;;;;;;;;;;4955606;29;20035;-81
2022/11/15 01:20:44;;;;;;;28.98;19.75;;;;;;;;;;4936075;28;20035;-81
2022/11/15 01:23:11;;;;;;;23.98;18.80;;;;;;;;;;4942137;28;20031;-81
2022/11/15 01:25:37;;;;;;;33.83;19.73;;;;;;;;;;4943142;28;20027;-80
2022/11/15 01:28:03;;;;;;;29.98;20.48;;;;;;;;;;4970593;28;20387;-81
2022/11/15 01:30:29;;;;;;;31.33;21.45;;;;;;;;;;4955762;28;20042;-81
2022/11/15 01:32:55;;;;;;;30.27;20.75;;;;;;;;;;4958961;28;20058;-82
2022/11/15 01:35:21;;;;;;;33.85;20.83;;;;;;;;;;4955689;28;20042;-84
2022/11/15 01:37:47;;;;;;;28.45;19.48;;;;;;;;;;4956295;28;20349;-81
2022/11/15 01:40:13;;;;;;;31.08;20.58;;;;;;;;;;4934275;28;20385;-84
2022/11/15 01:42:39;;;;;;;31.60;20.80;;;;;;;;;;4956069;28;20046;-81
2022/11/15 01:45:05;;;;;;;32.55;21.27;;;;;;;;;;4961982;28;20063;-84
2022/11/15 01:47:33;;;;;;;33.47;21.13;;;;;;;;;;4951712;28;20035;-83
2022/11/15 01:50:04;;;;;;;30.58;19.83;;;;;;;;;;4962551;28;20026;-83
2022/11/15 01:52:32;;;;;;;33.33;21.42;;;;;;;;;;4944841;28;20100;-80
2022/11/15 01:55:12;;;;;;;31.33;20.45;;;;;;;;;;4936198;28;20057;-80
2022/11/15 01:57:39;;;;;;;36.00;22.52;;;;;;;;;;4949978;28;20206;-81
2022/11/15 02:00:05;;;;;;;30.65;19.63;;;;;;;;;;4961949;28;20035;-84
2022/11/15 02:02:32;;;;;;;32.05;20.40;;;;;;;;;;4943391;28;20087;-82
2022/11/15 02:04:58;;;;;;;31.42;19.08;;;;;;;;;;4956984;28;20076;-84
2022/11/15 02:07:24;;;;;;;28.40;17.88;;;;;;;;;;4924691;28;1136402;-84
2022/11/15 02:09:51;;;;;;;29.52;18.60;;;;;;;;;;4968981;28;20041;-84
2022/11/15 02:12:21;;;;;;;28.63;18.30;;;;;;;;;;4948607;28;20070;-83
2022/11/15 02:14:49;;;;;;;29.20;19.30;;;;;;;;;;4963972;28;20621;-82
2022/11/15 02:17:22;;;;;;;34.67;19.58;;;;;;;;;;4957104;28;20019;-83
2022/11/15 02:20:10;;;;;;;28.90;18.55;;;;;;;;;;4953540;28;20070;-82
2022/11/15 02:22:45;;;;;;;28.77;18.48;;;;;;;;;;4948209;28;20028;-81
2022/11/15 02:25:20;;;;;;;29.77;19.42;;;;;;;;;;4964180;28;20125;-83
2022/11/15 02:27:58;;;;;;;30.50;18.67;;;;;;;;;;4950337;28;20502;-81
2022/11/15 02:30:26;;;;;;;29.92;18.52;;;;;;;;;;4947279;28;20035;-80
2022/11/15 02:32:59;;;;;;;32.88;20.17;;;;;;;;;;4964893;28;20043;-81
2022/11/15 02:35:48;;;;;;;35.97;20.77;;;;;;;;;;4953394;28;20035;-82
2022/11/15 02:38:23;;;;;;;32.13;20.63;;;;;;;;;;4958793;28;20039;-79
2022/11/15 02:40:52;;;;;;;38.00;21.02;;;;;;;;;;4945475;28;20035;-80
2022/11/15 02:49:19;;;;;;;37.50;20.60;;;;;;;;;;4943725;28;20043;-84
2022/11/15 02:51:48;;;;;;;39.13;22.92;;;;;;;;;;4968318;28;20050;-83
2022/11/15 02:54:22;;;;;;;35.67;20.48;;;;;;;;;;4939815;28;20027;-81
2022/11/15 02:56:48;;;;;;;39.58;21.73;;;;;;;;;;4961608;28;20486;-82
2022/11/15 02:59:30;;;;;;;36.13;21.38;;;;;;;;;;4956782;28;20039;-82
2022/11/15 03:01:59;;;;;;;36.72;21.23;;;;;;;;;;4952487;28;20035;-83
2022/11/15 03:04:25;;;;;;;39.97;21.67;;;;;;;;;;4950598;28;20042;-82
2022/11/15 03:06:59;;;;;;;43.38;21.90;;;;;;;;;;4947017;29;20054;-83
2022/11/15 03:09:37;;;;;;;47.47;22.67;;;;;;;;;;4934729;29;20024;-83
2022/11/15 03:12:24;;;;;;;42.60;22.42;;;;;;;;;;4950953;29;20077;-83
2022/11/15 03:14:50;;;;;;;45.38;23.52;;;;;;;;;;4927583;29;20036;-83
2022/11/15 03:17:16;;;;;;;45.35;24.17;;;;;;;;;;4940310;29;20091;-82
2022/11/15 03:19:42;;;;;;;44.08;24.02;;;;;;;;;;4939282;29;20027;-83
2022/11/15 03:22:10;;;;;;;46.53;22.95;;;;;;;;;;4948322;29;20054;-81
2022/11/15 03:24:38;;;;;;;41.75;23.58;;;;;;;;;;4933133;29;20035;-82
2022/11/15 03:27:06;;;;;;;47.13;23.35;;;;;;;;;;4941477;29;20035;-82
2022/11/15 03:29:33;;;;;;;42.90;23.52;;;;;;;;;;4942035;29;20082;-81
2022/11/15 03:32:03;;;;;;;52.53;24.60;;;;;;;;;;4940478;29;20077;-82
2022/11/15 03:34:32;;;;;;;51.58;26.00;;;;;;;;;;4938602;29;20043;-81
2022/11/15 03:36:58;;;;;;;48.10;24.55;;;;;;;;;;4925746;29;20528;-82
2022/11/15 03:39:25;;;;;;;47.72;24.25;;;;;;;;;;4941173;29;20036;-81
2022/11/15 03:42:10;;;;;;;54.67;25.77;;;;;;;;;;4929027;29;20028;-82
2022/11/15 03:44:59;;;;;;;59.67;25.42;;;;;;;;;;4946272;29;20105;-81
2022/11/15 03:47:28;;;;;;;64.05;25.23;;;;;;;;;;4916258;29;20035;-81
2022/11/15 03:49:57;;;;;;;54.80;25.52;;;;;;;;;;4935444;29;20393;-83
2022/11/15 03:52:23;;;;;;;59.83;28.55;;;;;;;;;;4935881;29;20036;-81
2022/11/15 03:54:57;;;;;;;55.65;26.95;;;;;;;;;;4928016;29;20039;-82
2022/11/15 03:57:23;;;;;;;57.75;27.08;;;;;;;;;;4931604;29;20123;-80
2022/11/15 03:59:49;;;;;;;58.67;26.80;;;;;;;;;;4927412;29;20102;-79
2022/11/15 04:02:15;;;;;;;58.60;26.55;;;;;;;;;;4937087;29;20268;-80
2022/11/15 04:04:41;;;;;;;64.07;26.95;;;;;;;;;;4928199;29;20050;-83
2022/11/15 04:07:07;;;;;;;57.55;27.05;;;;;;;;;;4933049;29;20048;-82
2022/11/15 04:09:33;;;;;;;58.15;25.35;;;;;;;;;;4962185;28;20027;-83
2022/11/15 04:11:59;;;;;;;68.68;26.60;;;;;;;;;;4942913;28;20047;-82
2022/11/15 04:14:25;;;;;;;62.35;26.27;;;;;;;;;;4950805;28;20058;-82
2022/11/15 04:16:51;;;;;;;55.10;26.27;;;;;;;;;;4949371;28;20457;-81
2022/11/15 04:24:46;;;;;;;58.65;26.63;;;;;;;;;;4948160;28;20053;-82
2022/11/15 04:27:13;;;;;;;53.95;25.02;;;;;;;;;;4949883;28;20115;-81
2022/11/15 04:29:39;;;;;;;56.08;25.52;;;;;;;;;;4952054;29;20071;-81
2022/11/15 04:32:06;;;;;;;63.70;25.92;;;;;;;;;;4948098;28;20098;-81
2022/11/15 04:34:33;;;;;;;61.17;26.70;;;;;;;;;;4946797;28;20035;-82
2022/11/15 04:37:11;;;;;;;59.70;27.13;;;;;;;;;;4945905;28;20110;-80
2022/11/15 04:39:37;;;;;;;69.22;28.77;;;;;;;;;;4950918;28;21398;-81
2022/11/15 04:42:03;;;;;;;67.03;28.20;;;;;;;;;;4957453;28;20043;-80
2022/11/15 04:44:29;;;;;;;62.78;28.23;;;;;;;;;;4950170;28;20415;-81
2022/11/15 04:46:55;;;;;;;68.43;29.52;;;;;;;;;;4952331;28;20032;-82
2022/11/15 04:49:22;;;;;;;65.20;28.05;;;;;;;;;;4943680;28;20380;-80
2022/11/15 04:51:48;;;;;;;65.05;26.88;;;;;;;;;;4954436;28;20121;-82
2022/11/15 04:54:14;;;;;;;72.05;30.25;;;;;;;;;;4926441;28;20044;-82
2022/11/15 04:56:40;;;;;;;68.40;29.23;;;;;;;;;;4950037;28;20628;-82
2022/11/15 04:59:06;;;;;;;67.70;30.85;;;;;;;;;;4956641;28;20024;-82
2022/11/15 05:01:32;;;;;;;68.75;30.35;;;;;;;;;;4959206;28;20419;-81
2022/11/15 05:06:42;;;;;;;77.38;31.95;;;;;;;;;;4961976;28;20103;-83
2022/11/15 05:09:08;;;;;;;76.55;31.15;;;;;;;;;;4950543;28;20039;-83
2022/11/15 05:11:35;;;;;;;72.95;31.92;;;;;;;;;;4947234;28;20444;-83
2022/11/15 05:14:01;;;;;;;68.53;32.50;;;;;;;;;;4939413;28;20463;-82
2022/11/15 05:16:27;;;;;;;80.07;33.17;;;;;;;;;;4943293;28;20027;-82
2022/11/15 05:18:53;;;;;;;86.50;36.05;;;;;;;;;;4953094;28;20022;-83
2022/11/15 05:21:19;;;;;;;78.90;33.50;;;;;;;;;;4932115;29;20031;-82
2022/11/15 05:23:46;;;;;;;83.25;36.28;;;;;;;;;;4939329;29;20044;-82
2022/11/15 05:26:16;;;;;;;84.05;34.90;;;;;;;;;;4959104;28;20239;-81
2022/11/15 05:28:42;;;;;;;74.38;32.80;;;;;;;;;;4965772;28;20065;-81
2022/11/15 05:31:11;;;;;;;89.65;35.92;;;;;;;;;;4949059;28;20049;-80
2022/11/15 05:33:38;;;;;;;88.78;36.38;;;;;;;;;;4931798;28;20130;-81
2022/11/15 05:36:10;;;;;;;86.10;38.35;;;;;;;;;;4937236;28;20039;-79
2022/11/15 05:38:36;;;;;;;96.75;38.63;;;;;;;;;;4946181;28;20035;-80
2022/11/15 05:41:03;;;;;;;96.93;38.38;;;;;;;;;;4942258;28;20191;-81
2022/11/15 05:43:32;;;;;;;102.57;38.13;;;;;;;;;;4954313;28;20671;-81
2022/11/15 05:45:59;;;;;;;108.85;38.63;;;;;;;;;;4947379;28;20034;-84
2022/11/15 05:48:25;;;;;;;103.57;44.65;;;;;;;;;;4941847;28;20057;-81
2022/11/15 05:50:51;;;;;;;104.50;42.15;;;;;;;;;;4931408;28;20049;-80
2022/11/15 05:53:19;;;;;;;115.43;42.97;;;;;;;;;;4949112;28;20054;-79
2022/11/15 05:55:45;;;;;;;109.53;41.58;;;;;;;;;;4937169;29;20392;-81
2022/11/15 05:58:11;;;;;;;100.50;38.97;;;;;;;;;;4943867;28;20031;-85
2022/11/15 06:00:37;;;;;;;105.53;39.05;;;;;;;;;;4952599;28;20035;-82
2022/11/15 06:03:03;;;;;;;125.70;45.25;;;;;;;;;;4953719;28;20059;-82
2022/11/15 06:05:29;;;;;;;120.15;41.30;;;;;;;;;;4967297;28;20038;-82
2022/11/15 06:07:59;;;;;;;118.22;43.70;;;;;;;;;;4941045;28;20062;-81
2022/11/15 06:10:25;;;;;;;116.82;41.67;;;;;;;;;;4963235;28;20031;-79
2022/11/15 06:12:58;;;;;;;114.45;40.83;;;;;;;;;;4955503;28;20039;-78
2022/11/15 06:15:24;;;;;;;99.55;39.78;;;;;;;;;;4958105;28;20317;-79
2022/11/15 06:17:50;;;;;;;114.85;43.58;;;;;;;;;;4948580;28;20388;-81
2022/11/15 06:20:16;;;;;;;118.18;41.65;;;;;;;;;;4952604;28;20038;-77
2022/11/15 06:22:42;;;;;;;120.43;43.47;;;;;;;;;;4942418;28;20465;-80
2022/11/15 06:25:09;;;;;;;121.00;46.03;;;;;;;;;;4940570;28;20487;-81
2022/11/15 06:27:35;;;;;;;131.35;59.38;;;;;;;;;;4944728;28;20216;-79
2022/11/15 06:30:01;;;;;;;115.18;42.38;;;;;;;;;;4947558;28;20031;-78
2022/11/15 06:32:27;;;;;;;109.32;41.83;;;;;;;;;;4946510;28;20436;-77
2022/11/15 06:34:53;;;;;;;105.60;38.92;;;;;;;;;;4947868;28;20381;-82
2022/11/15 06:37:20;;;;;;;120.43;44.78;;;;;;;;;;4947659;28;20507;-78
2022/11/15 06:39:46;;;;;;;101.65;43.10;;;;;;;;;;4945904;28;20039;-79
2022/11/15 06:42:12;;;;;;;120.90;42.03;;;;;;;;;;4949893;28;20028;-78
2022/11/15 06:44:38;;;;;;;114.40;42.72;;;;;;;;;;4945361;28;20043;-80
2022/11/15 06:47:04;;;;;;;106.97;41.05;;;;;;;;;;4945904;28;20041;-79
2022/11/15 06:49:30;;;;;;;110.32;42.55;;;;;;;;;;4944598;28;20434;-78
2022/11/15 06:51:56;;;;;;;102.65;42.38;;;;;;;;;;4961251;28;20046;-83
2022/11/15 06:54:22;;;;;;;98.65;42.53;;;;;;;;;;4950959;28;20460;-81
2022/11/15 06:56:48;;;;;;;103.78;42.78;;;;;;;;;;4951451;28;20039;-81
2022/11/15 06:59:14;;;;;;;113.70;41.05;;;;;;;;;;4951679;28;20062;-82
2022/11/15 07:01:40;;;;;;;98.57;41.45;;;;;;;;;;4936496;28;20067;-83
2022/11/15 07:04:06;;;;;;;99.63;41.28;;;;;;;;;;4947449;28;20035;-82
2022/11/15 07:06:32;;;;;;;99.47;40.85;;;;;;;;;;4939588;28;20473;-83
2022/11/15 07:08:58;;;;;;;91.18;41.13;;;;;;;;;;4917797;29;20122;-84
2022/11/15 07:11:25;;;;;;;102.30;41.30;;;;;;;;;;4909965;29;20079;-82
2022/11/15 07:13:51;;;;;;;144.52;76.00;;;;;;;;;;4918351;29;20056;-83
2022/11/15 07:16:17;;;;;;;95.28;42.22;;;;;;;;;;4926216;29;20080;-82
2022/11/15 07:18:43;;;;;;;89.25;40.95;;;;;;;;;;4939572;29;20044;-84
2022/11/15 07:21:10;;;;;;;92.90;38.60;;;;;;;;;;4935367;29;20075;-83
2022/11/15 07:23:38;;;;;;;92.35;38.70;;;;;;;;;;4931957;29;20020;-82
2022/11/15 07:26:05;;;;;;;81.30;39.63;;;;;;;;;;4912966;29;20040;-83
2022/11/15 07:28:31;;;;;;;84.00;37.92;;;;;;;;;;4923288;29;20020;-83
2022/11/15 07:30:57;;;;;;;95.07;39.55;;;;;;;;;;4918773;29;20044;-82
2022/11/15 07:33:23;;;;;;;73.72;37.20;;;;;;;;;;4919634;29;20559;-81
2022/11/15 07:35:49;;;;;;;87.85;39.92;;;;;;;;;;4924186;29;20042;-82
2022/11/15 07:38:19;;;;;;;78.78;38.53;;;;;;;;;;4922568;29;20024;-82
2022/11/15 07:40:46;;;;;;;73.75;36.47;;;;;;;;;;4920137;29;20087;-78
2022/11/15 07:43:12;;;;;;;80.38;38.15;;;;;;;;;;4946475;28;20037;-77
2022/11/15 07:45:45;;;;;;;78.38;34.72;;;;;;;;;;4930680;29;20110;-78
2022/11/15 07:48:11;;;;;;;73.07;36.08;;;;;;;;;;4927443;29;20043;-79
2022/11/15 07:50:37;;;;;;;73.20;34.30;;;;;;;;;;4936398;29;20027;-81
2022/11/15 07:53:03;;;;;;;68.25;33.92;;;;;;;;;;4923784;29;20032;-76
2022/11/15 07:55:29;;;;;;;64.50;34.63;;;;;;;;;;4929863;29;20031;-78
2022/11/15 07:58:06;;;;;;;65.75;35.03;;;;;;;;;;4927948;29;20036;-80
2022/11/15 08:00:32;;;;;;;61.88;34.22;;;;;;;;;;4911940;29;20111;-80
2022/11/15 08:03:05;;;;;;;72.93;34.80;;;;;;;;;;4932788;29;20031;-77
2022/11/15 08:05:31;;;;;;;70.40;34.25;;;;;;;;;;4932432;29;20028;-79
2022/11/15 08:08:01;;;;;;;69.13;34.67;;;;;;;;;;4915751;29;20353;-78
2022/11/15 08:10:28;;;;;;;66.20;35.30;;;;;;;;;;4926591;29;20107;-78
2022/11/15 08:12:57;;;;;;;62.38;34.45;;;;;;;;;;4943556;29;20090;-77
2022/11/15 08:15:23;;;;;;;61.92;33.88;;;;;;;;;;4927389;29;20020;-77
2022/11/15 08:17:53;;;;;;;70.68;33.78;;;;;;;;;;4926849;29;20035;-77
2022/11/15 08:20:20;;;;;;;64.28;32.35;;;;;;;;;;4926938;29;20523;-76
2022/11/15 08:22:46;;;;;;;65.55;33.67;;;;;;;;;;4908916;29;20032;-78
2022/11/15 08:25:12;;;;;;;55.42;32.38;;;;;;;;;;4926572;29;20126;-76
2022/11/15 08:27:38;;;;;;;52.13;32.97;;;;;;;;;;4935431;29;20530;-76
2022/11/15 08:30:04;;;;;;;60.65;33.83;;;;;;;;;;4932542;29;20036;-81
2022/11/15 08:32:31;;;;;;;55.08;31.27;;;;;;;;;;4926644;29;20036;-77
2022/11/15 08:34:57;;;;;;;53.03;32.67;;;;;;;;;;4931441;29;20428;-82
2022/11/15 08:37:23;;;;;;;57.55;31.83;;;;;;;;;;4932989;29;20036;-77
2022/11/15 08:39:49;;;;;;;48.90;29.65;;;;;;;;;;4911520;29;20032;-81
2022/11/15 08:42:16;;;;;;;54.85;32.63;;;;;;;;;;4929791;29;20035;-77
2022/11/15 08:44:42;;;;;;;47.67;29.02;;;;;;;;;;4931685;29;20037;-77
2022/11/15 08:47:11;;;;;;;51.20;30.52;;;;;;;;;;4926346;29;20059;-76
2022/11/15 08:49:37;;;;;;;50.72;29.60;;;;;;;;;;4925808;29;20057;-77
2022/11/15 08:52:03;;;;;;;52.78;30.35;;;;;;;;;;4927748;29;20060;-77
2022/11/15 08:54:29;;;;;;;46.50;28.73;;;;;;;;;;4930553;29;20044;-77
2022/11/15 08:56:55;;;;;;;50.50;29.60;;;;;;;;;;4922835;29;20031;-79
2022/11/15 08:59:21;;;;;;;51.17;30.85;;;;;;;;;;4926159;29;20032;-77
2022/11/15 09:01:47;;;;;;;50.05;28.77;;;;;;;;;;4922564;29;20055;-77
2022/11/15 09:04:13;;;;;;;45.03;28.00;;;;;;;;;;4927962;29;20035;-79
2022/11/15 09:06:39;;;;;;;49.03;27.83;;;;;;;;;;4943224;28;20338;-78
2022/11/15 09:09:05;;;;;;;43.72;27.08;;;;;;;;;;4948138;28;20484;-79
2022/11/15 09:11:32;;;;;;;41.63;27.00;;;;;;;;;;4947913;28;20524;-77
2022/11/15 09:13:58;;;;;;;40.67;27.55;;;;;;;;;;4957231;28;20305;-77
2022/11/15 09:16:24;;;;;;;39.45;26.77;;;;;;;;;;4954551;28;20027;-79
2022/11/15 09:18:50;;;;;;;44.05;27.20;;;;;;;;;;4970122;28;20038;-78
2022/11/15 09:21:16;;;;;;;43.60;26.20;;;;;;;;;;4952597;28;20096;-78
2022/11/15 09:23:42;;;;;;;40.70;25.70;;;;;;;;;;4943608;28;20027;-82
2022/11/15 09:26:08;;;;;;;41.05;26.50;;;;;;;;;;4943744;28;20041;-77
2022/11/15 09:28:34;;;;;;;39.30;26.55;;;;;;;;;;4950294;28;20527;-77
2022/11/15 09:31:01;;;;;;;34.33;24.23;;;;;;;;;;4961295;28;20058;-76
2022/11/15 09:33:27;;;;;;;38.05;25.73;;;;;;;;;;4961441;28;20042;-78
2022/11/15 09:35:54;;;;;;;41.78;26.45;;;;;;;;;;4961782;28;20075;-77
2022/11/15 09:38:20;;;;;;;33.80;23.75;;;;;;;;;;4945099;28;20024;-77
2022/11/15 09:40:50;;;;;;;42.60;24.73;;;;;;;;;;4964552;28;20026;-77
2022/11/15 09:43:25;;;;;;;36.00;23.55;;;;;;;;;;4973462;28;20031;-79
2022/11/15 09:46:00;;;;;;;37.17;22.83;;;;;;;;;;4952379;28;20026;-77
2022/11/15 09:48:45;;;;;;;33.80;22.50;;;;;;;;;;4958040;28;20043;-79
2022/11/15 09:51:46;;;;;;;39.78;22.33;;;;;;;;;;4955706;28;20434;-78
2022/11/15 09:54:29;;;;;;;31.15;23.17;;;;;;;;;;4938369;28;20364;-77
2022/11/15 09:56:57;;;;;;;39.15;22.02;;;;;;;;;;4971583;28;20030;-78
2022/11/15 09:59:38;;;;;;;37.28;22.48;;;;;;;;;;4957710;28;20027;-78
2022/11/15 10:02:04;;;;;;;30.20;22.08;;;;;;;;;;4956479;28;20027;-77
2022/11/15 10:04:31;;;;;;;29.55;21.20;;;;;;;;;;4946856;28;20031;-78
2022/11/15 10:07:18;;;;;;;33.88;19.63;;;;;;;;;;4947595;28;20086;-80
2022/11/15 10:09:53;;;;;;;36.95;20.60;;;;;;;;;;4929156;29;20015;-78
2022/11/15 10:12:19;;;;;;;35.15;20.55;;;;;;;;;;4930095;29;20114;-77
2022/11/15 10:14:46;;;;;;;27.35;19.33;;;;;;;;;;4934254;29;20032;-78
2022/11/15 10:17:35;;;;;;;31.40;18.58;;;;;;;;;;4946153;29;20079;-77
2022/11/15 10:20:05;;;;;;;33.67;18.77;;;;;;;;;;4933021;29;20072;-79
2022/11/15 10:22:36;;;;;;;27.23;19.15;;;;;;;;;;4934742;29;20122;-77
2022/11/15 10:25:15;;;;;;;30.35;19.63;;;;;;;;;;4935796;29;20111;-77
2022/11/15 10:27:42;;;;;;;30.83;20.60;;;;;;;;;;4934949;29;20106;-77
2022/11/15 10:30:13;;;;;;;30.25;20.50;;;;;;;;;;4928139;29;20397;-78
2022/11/15 10:32:40;;;;;;;26.88;18.38;;;;;;;;;;4944436;29;20031;-78
2022/11/15 10:35:24;;;;;;;33.28;18.95;;;;;;;;;;4925408;29;20068;-77
2022/11/15 10:37:50;;;;;;;29.15;18.73;;;;;;;;;;4933856;29;20040;-77
2022/11/15 10:40:18;;;;;;;25.88;18.02;;;;;;;;;;4925611;29;20378;-81
2022/11/15 10:42:44;;;;;;;28.50;18.90;;;;;;;;;;4934102;29;20019;-77
2022/11/15 10:45:27;;;;;;;27.30;17.10;;;;;;;;;;4929180;29;20103;-78
2022/11/15 10:47:53;;;;;;;30.08;17.95;;;;;;;;;;4927541;29;20023;-77
2022/11/15 10:50:30;;;;;;;23.67;16.73;;;;;;;;;;4930865;29;20485;-77
2022/11/15 10:52:58;;;;;;;22.45;15.65;;;;;;;;;;4924100;29;20730;-77
2022/11/15 10:55:31;;;;;;;20.63;15.57;;;;;;;;;;4933460;29;20130;-76
2022/11/15 10:58:06;;;;;;;27.25;16.55;;;;;;;;;;4929567;29;20028;-81
2022/11/15 11:00:39;;;;;;;25.83;15.38;;;;;;;;;;4934508;29;20051;-77
2022/11/15 11:03:23;;;;;;;24.98;14.77;;;;;;;;;;4938855;29;20094;-78
2022/11/15 11:06:03;;;;;;;22.02;14.77;;;;;;;;;;4936396;28;20464;-80
2022/11/15 11:08:29;;;;;;;25.40;14.35;;;;;;;;;;4945832;28;20019;-78
2022/11/15 11:10:56;;;;;;;23.90;12.65;;;;;;;;;;4956722;28;20391;-81
2022/11/15 11:13:29;;;;;;;20.67;13.40;;;;;;;;;;4952087;28;20038;-77
2022/11/15 11:16:02;;;;;;;21.10;12.68;;;;;;;;;;4957046;28;20031;-81
2022/11/15 11:18:39;;;;;;;18.67;12.10;;;;;;;;;;4946637;28;20042;-77
2022/11/15 11:21:11;;;;;;;18.05;11.73;;;;;;;;;;4940471;28;20443;-77
2022/11/15 11:23:57;;;;;;;14.57;10.88;;;;;;;;;;4961844;28;20030;-77
2022/11/15 11:26:23;;;;;;;16.02;9.43;;;;;;;;;;4953510;28;20031;-77
2022/11/15 11:29:02;;;;;;;17.45;10.07;;;;;;;;;;4957549;28;20447;-77
2022/11/15 11:31:43;;;;;;;15.02;9.30;;;;;;;;;;4954220;28;20435;-77
2022/11/15 11:34:28;;;;;;;13.13;8.00;;;;;;;;;;4952115;28;20034;-76
2022/11/15 11:37:03;;;;;;;13.45;8.70;;;;;;;;;;4970376;28;20042;-78
2022/11/15 11:39:44;;;;;;;9.30;7.70;;;;;;;;;;4945701;28;20042;-77
2022/11/15 11:42:10;;;;;;;14.07;7.28;;;;;;;;;;4932309;28;20570;-77
2022/11/15 11:44:49;;;;;;;9.05;7.00;;;;;;;;;;4954022;28;20062;-77
2022/11/15 11:47:25;;;;;;;12.43;7.03;;;;;;;;;;4948587;28;20369;-77
2022/11/15 11:50:03;;;;;;;12.93;7.35;;;;;;;;;;4958513;28;20034;-79
2022/11/15 11:52:32;;;;;;;11.15;6.70;;;;;;;;;;4960683;28;20037;-79
2022/11/15 11:55:17;;;;;;;10.70;6.97;;;;;;;;;;4934049;28;20063;-80
2022/11/15 11:57:46;;;;;;;11.05;6.10;;;;;;;;;;4951728;29;20019;-78
2022/11/15 12:00:21;;;;;;;10.45;6.40;;;;;;;;;;4955425;28;20033;-82
2022/11/15 12:03:04;;;;;;;9.75;6.00;;;;;;;;;;4959298;28;20030;-80
2022/11/15 12:05:44;;;;;;;14.50;7.53;;;;;;;;;;4950417;28;20369;-78
2022/11/15 12:08:29;;;;;;;9.85;5.88;;;;;;;;;;4915243;29;20071;-79
2022/11/15 12:11:14;;;;;;;9.25;6.15;;;;;;;;;;4915102;29;20528;-79
2022/11/15 12:13:41;;;;;;;13.10;6.47;;;;;;;;;;4928603;29;20377;-78
2022/11/15 12:16:22;;;;;;;9.20;5.63;;;;;;;;;;4933024;29;20099;-79
2022/11/15 12:18:50;;;;;;;10.77;6.22;;;;;;;;;;4936021;29;20480;-82
2022/11/15 12:21:32;;;;;;;9.82;5.65;;;;;;;;;;4931512;29;20126;-78
2022/11/15 12:24:01;;;;;;;13.32;5.45;;;;;;;;;;4944650;29;20095;-80
2022/11/15 12:26:29;;;;;;;7.95;5.22;;;;;;;;;;4927402;29;20381;-79
2022/11/15 12:28:57;;;;;;;8.00;5.20;;;;;;;;;;4934764;29;20461;-84
2022/11/15 12:31:23;;;;;;;12.45;6.00;;;;;;;;;;4926331;29;20043;-78
2022/11/15 12:33:50;;;;;;;7.45;4.93;;;;;;;;;;4931836;29;20023;-81
2022/11/15 12:36:22;;;;;;;8.77;4.25;;;;;;;;;;4926370;29;20083;-79
2022/11/15 12:38:48;;;;;;;5.30;4.55;;;;;;;;;;4931776;29;20039;-79
2022/11/15 12:41:17;;;;;;;14.43;4.20;;;;;;;;;;4933302;29;20032;-79
2022/11/15 12:43:44;;;;;;;5.38;3.08;;;;;;;;;;4926542;29;20096;-79
2022/11/15 12:46:20;;;;;;;6.07;2.78;;;;;;;;;;4937739;29;20079;-77
2022/11/15 12:48:47;;;;;;;5.32;3.08;;;;;;;;;;4928644;29;20040;-78
2022/11/15 12:51:13;;;;;;;5.05;2.67;;;;;;;;;;4930482;29;20176;-78
2022/11/15 12:53:39;;;;;;;4.75;2.33;;;;;;;;;;4936357;29;20043;-79
2022/11/15 12:56:08;;;;;;;7.05;2.33;;;;;;;;;;4927121;29;20032;-80
2022/11/15 12:58:49;;;;;;;8.55;3.03;;;;;;;;;;4932560;29;20496;-78
2022/11/15 13:01:31;;;;;;;10.05;2.40;;;;;;;;;;4936492;29;20467;-80
2022/11/15 13:04:13;;;;;;;3.38;2.50;;;;;;;;;;4913664;29;20050;-81
2022/11/15 13:06:44;;;;;;;10.02;2.58;;;;;;;;;;4931593;28;20054;-77
2022/11/15 13:09:28;;;;;;;4.63;2.65;;;;;;;;;;4957665;28;20035;-80
2022/11/15 13:11:55;;;;;;;7.63;2.75;;;;;;;;;;4950092;28;20036;-79
2022/11/15 13:14:40;;;;;;;7.07;2.80;;;;;;;;;;4955785;29;20031;-78
2022/11/15 13:17:25;;;;;;;4.80;2.40;;;;;;;;;;4946101;28;20059;-79
2022/11/15 13:20:00;;;;;;;5.13;2.58;;;;;;;;;;4953800;28;20149;-80
2022/11/15 13:25:27;;;;;;;7.25;2.75;;;;;;;;;;4949109;28;20400;-79
2022/11/15 13:27:57;;;;;;;4.88;2.38;;;;;;;;;;4965361;28;20046;-79
2022/11/15 13:30:25;;;;;;;16.30;8.40;;;;;;;;;;4955712;28;20026;-79
2022/11/15 13:32:52;;;;;;;8.10;4.88;;;;;;;;;;4943293;28;20461;-81
2022/11/15 13:35:22;;;;;;;4.13;2.30;;;;;;;;;;4968697;28;20106;-79
2022/11/15 13:37:49;;;;;;;7.55;2.60;;;;;;;;;;4959690;28;20515;-78
2022/11/15 13:40:24;;;;;;;6.75;2.60;;;;;;;;;;4954368;28;20424;-79
2022/11/15 13:42:50;;;;;;;8.43;2.38;;;;;;;;;;4963331;28;20027;-78
2022/11/15 13:45:19;;;;;;;5.25;2.30;;;;;;;;;;4936212;29;20082;-79
2022/11/15 13:47:45;;;;;;;4.60;2.33;;;;;;;;;;4955073;29;20027;-78
2022/11/15 13:50:12;;;;;;;2.70;1.77;;;;;;;;;;4949510;28;20039;-81
2022/11/15 13:52:40;;;;;;;6.35;1.90;;;;;;;;;;4964442;28;20030;-79
2022/11/15 13:55:11;;;;;;;5.35;2.45;;;;;;;;;;4953079;28;20070;-78
2022/11/15 13:57:43;;;;;;;5.10;2.47;;;;;;;;;;4959940;28;20023;-83
2022/11/15 14:00:31;;;;;;;5.63;2.40;;;;;;;;;;4953611;28;20057;-81
2022/11/15 14:02:57;;;;;;;5.13;1.80;;;;;;;;;;4930157;28;20071;-78
2022/11/15 14:05:27;;;;;;;2.60;1.83;;;;;;;;;;4970330;28;20024;-78
2022/11/15 14:07:54;;;;;;;3.75;1.80;;;;;;;;;;4935877;28;20051;-79
2022/11/15 14:10:35;;;;;;;5.05;2.10;;;;;;;;;;4935395;29;20112;-80
2022/11/15 14:13:02;;;;;;;6.05;2.38;;;;;;;;;;4916920;29;20024;-80
2022/11/15 14:15:28;;;;;;;4.70;1.75;;;;;;;;;;4936716;29;20443;-78
2022/11/15 14:17:54;;;;;;;4.60;1.48;;;;;;;;;;4935283;29;20035;-79
2022/11/15 14:20:32;;;;;;;3.80;1.60;;;;;;;;;;4921068;29;20043;-79
2022/11/15 14:23:06;;;;;;;2.83;1.40;;;;;;;;;;4927362;29;20047;-79
2022/11/15 14:25:35;;;;;;;4.57;2.17;;;;;;;;;;4933710;29;20020;-78
2022/11/15 14:28:13;;;;;;;3.95;1.67;;;;;;;;;;4927336;29;20031;-78
2022/11/15 14:30:40;;;;;;;3.95;1.60;;;;;;;;;;4923303;29;20114;-82
2022/11/15 14:33:18;;;;;;;3.22;1.70;;;;;;;;;;4935582;29;20036;-82
2022/11/15 14:35:45;;;;;;;4.20;1.30;;;;;;;;;;4929375;29;20032;-82
2022/11/15 14:38:11;;;;;;;3.85;1.60;;;;;;;;;;4926506;29;20135;-78
2022/11/15 14:40:37;;;;;;;4.93;1.95;;;;;;;;;;4915761;29;20105;-78
2022/11/15 14:43:03;;;;;;;1.77;1.40;;;;;;;;;;4933934;29;20083;-78
2022/11/15 14:45:29;;;;;;;3.50;1.65;;;;;;;;;;4935142;29;20033;-78
2022/11/15 14:47:55;;;;;;;10.60;5.05;;;;;;;;;;4926382;29;20019;-83
2022/11/15 14:50:22;;;;;;;5.95;2.28;;;;;;;;;;4933899;29;20036;-78